sensor_id;sensor_type;location;lat;lon;timestamp;P1;durP1;ratioP1;P2;durP2;ratioP2
65759;SDS011;52496;51.082;5.066;2022-12-15T00:01:06;38.97;;;20.17;;
65759;SDS011;52496;51.082;5.066;2022-12-15T00:03:55;39.42;;;20.58;;
65759;SDS011;52496;51.082;5.066;2022-12-15T00:06:43;37.38;;;20.45;;
65759;SDS011;52496;51.082;5.066;2022-12-15T00:09:32;38.55;;;20.38;;
65759;SDS011;52496;51.082;5.066;2022-12-15T00:12:21;40.95;;;20.35;;
65759;SDS011;52496;51.082;5.066;2022-12-15T00:15:10;40.15;;;21.27;;
65759;SDS011;52496;51.082;5.066;2022-12-15T00:18:03;38.60;;;19.80;;
65759;SDS011;52496;51.082;5.066;2022-12-15T00:20:57;39.95;;;21.95;;
65759;SDS011;52496;51.082;5.066;2022-12-15T00:23:47;34.88;;;17.85;;
65759;SDS011;52496;51.082;5.066;2022-12-15T00:26:36;34.78;;;19.33;;
65759;SDS011;52496;51.082;5.066;2022-12-15T00:29:25;40.65;;;20.42;;
65759;SDS011;52496;51.082;5.066;2022-12-15T00:32:14;39.35;;;20.65;;
65759;SDS011;52496;51.082;5.066;2022-12-15T00:35:03;38.25;;;18.98;;
65759;SDS011;52496;51.082;5.066;2022-12-15T00:37:53;37.42;;;19.38;;
65759;SDS011;52496;51.082;5.066;2022-12-15T00:40:42;34.35;;;18.60;;
65759;SDS011;52496;51.082;5.066;2022-12-15T00:43:12;31.88;;;19.50;;
65759;SDS011;52496;51.082;5.066;2022-12-15T00:45:43;36.00;;;21.27;;
65759;SDS011;52496;51.082;5.066;2022-12-15T00:48:32;43.10;;;19.83;;
65759;SDS011;52496;51.082;5.066;2022-12-15T00:51:02;36.55;;;21.20;;
65759;SDS011;52496;51.082;5.066;2022-12-15T00:53:33;33.95;;;20.42;;
65759;SDS011;52496;51.082;5.066;2022-12-15T00:56:22;42.58;;;19.95;;
65759;SDS011;52496;51.082;5.066;2022-12-15T00:59:12;37.30;;;21.63;;
65759;SDS011;52496;51.082;5.066;2022-12-15T01:02:02;44.72;;;21.50;;
65759;SDS011;52496;51.082;5.066;2022-12-15T01:04:51;37.42;;;19.35;;
65759;SDS011;52496;51.082;5.066;2022-12-15T01:07:40;35.35;;;18.83;;
65759;SDS011;52496;51.082;5.066;2022-12-15T01:10:29;40.92;;;20.65;;
65759;SDS011;52496;51.082;5.066;2022-12-15T01:13:18;39.75;;;20.92;;
65759;SDS011;52496;51.082;5.066;2022-12-15T01:16:11;38.63;;;21.77;;
65759;SDS011;52496;51.082;5.066;2022-12-15T01:19:00;33.33;;;18.77;;
65759;SDS011;52496;51.082;5.066;2022-12-15T01:21:49;36.42;;;19.63;;
65759;SDS011;52496;51.082;5.066;2022-12-15T01:24:20;45.63;;;21.80;;
65759;SDS011;52496;51.082;5.066;2022-12-15T01:26:51;37.30;;;20.05;;
65759;SDS011;52496;51.082;5.066;2022-12-15T01:29:21;36.97;;;19.63;;
65759;SDS011;52496;51.082;5.066;2022-12-15T01:31:52;40.25;;;20.30;;
65759;SDS011;52496;51.082;5.066;2022-12-15T01:34:23;34.55;;;20.80;;
65759;SDS011;52496;51.082;5.066;2022-12-15T01:36:53;40.97;;;21.38;;
65759;SDS011;52496;51.082;5.066;2022-12-15T01:39:24;41.33;;;23.48;;
65759;SDS011;52496;51.082;5.066;2022-12-15T01:42:15;39.25;;;21.25;;
65759;SDS011;52496;51.082;5.066;2022-12-15T01:44:47;41.53;;;21.08;;
65759;SDS011;52496;51.082;5.066;2022-12-15T01:47:21;38.67;;;19.25;;
65759;SDS011;52496;51.082;5.066;2022-12-15T01:49:54;42.72;;;20.77;;
65759;SDS011;52496;51.082;5.066;2022-12-15T01:52:24;36.42;;;21.48;;
65759;SDS011;52496;51.082;5.066;2022-12-15T01:54:55;40.08;;;22.77;;
65759;SDS011;52496;51.082;5.066;2022-12-15T01:57:28;40.40;;;21.75;;
65759;SDS011;52496;51.082;5.066;2022-12-15T02:00:03;40.70;;;21.48;;
65759;SDS011;52496;51.082;5.066;2022-12-15T02:02:35;38.20;;;20.27;;
65759;SDS011;52496;51.082;5.066;2022-12-15T02:05:07;39.60;;;21.80;;
65759;SDS011;52496;51.082;5.066;2022-12-15T02:07:39;40.28;;;21.33;;
65759;SDS011;52496;51.082;5.066;2022-12-15T02:10:09;38.33;;;20.00;;
65759;SDS011;52496;51.082;5.066;2022-12-15T02:12:57;42.60;;;22.58;;
65759;SDS011;52496;51.082;5.066;2022-12-15T02:15:40;44.40;;;21.88;;
65759;SDS011;52496;51.082;5.066;2022-12-15T02:18:23;38.17;;;21.55;;
65759;SDS011;52496;51.082;5.066;2022-12-15T02:21:06;41.47;;;22.33;;
65759;SDS011;52496;51.082;5.066;2022-12-15T02:32:09;39.45;;;20.73;;
65759;SDS011;52496;51.082;5.066;2022-12-15T02:37:25;38.22;;;20.60;;
65759;SDS011;52496;51.082;5.066;2022-12-15T02:40:04;42.50;;;20.65;;
65759;SDS011;52496;51.082;5.066;2022-12-15T02:42:50;38.55;;;21.27;;
65759;SDS011;52496;51.082;5.066;2022-12-15T02:45:35;37.85;;;21.02;;
65759;SDS011;52496;51.082;5.066;2022-12-15T02:48:36;43.80;;;23.02;;
65759;SDS011;52496;51.082;5.066;2022-12-15T02:51:33;41.58;;;22.45;;
65759;SDS011;52496;51.082;5.066;2022-12-15T02:54:22;38.03;;;21.60;;
65759;SDS011;52496;51.082;5.066;2022-12-15T02:59:59;43.17;;;22.73;;
65759;SDS011;52496;51.082;5.066;2022-12-15T03:02:33;39.83;;;21.70;;
65759;SDS011;52496;51.082;5.066;2022-12-15T03:05:08;43.22;;;21.55;;
65759;SDS011;52496;51.082;5.066;2022-12-15T03:07:39;38.38;;;21.42;;
65759;SDS011;52496;51.082;5.066;2022-12-15T03:10:12;39.15;;;22.35;;
65759;SDS011;52496;51.082;5.066;2022-12-15T03:12:43;48.10;;;23.25;;
65759;SDS011;52496;51.082;5.066;2022-12-15T03:15:14;43.50;;;22.33;;
65759;SDS011;52496;51.082;5.066;2022-12-15T03:17:45;49.03;;;20.70;;
65759;SDS011;52496;51.082;5.066;2022-12-15T03:20:16;45.63;;;22.77;;
65759;SDS011;52496;51.082;5.066;2022-12-15T03:22:46;38.13;;;21.13;;
65759;SDS011;52496;51.082;5.066;2022-12-15T03:25:17;41.42;;;21.95;;
65759;SDS011;52496;51.082;5.066;2022-12-15T03:27:47;39.05;;;21.05;;
65759;SDS011;52496;51.082;5.066;2022-12-15T03:30:18;39.13;;;21.52;;
65759;SDS011;52496;51.082;5.066;2022-12-15T03:32:49;44.38;;;22.83;;
65759;SDS011;52496;51.082;5.066;2022-12-15T03:35:20;38.30;;;22.40;;
65759;SDS011;52496;51.082;5.066;2022-12-15T03:37:51;37.47;;;20.60;;
65759;SDS011;52496;51.082;5.066;2022-12-15T03:40:21;41.10;;;21.05;;
65759;SDS011;52496;51.082;5.066;2022-12-15T03:42:51;42.90;;;23.40;;
65759;SDS011;52496;51.082;5.066;2022-12-15T03:45:23;37.25;;;20.42;;
65759;SDS011;52496;51.082;5.066;2022-12-15T03:47:55;37.03;;;21.75;;
65759;SDS011;52496;51.082;5.066;2022-12-15T03:50:27;45.53;;;24.48;;
65759;SDS011;52496;51.082;5.066;2022-12-15T03:52:59;40.13;;;21.83;;
65759;SDS011;52496;51.082;5.066;2022-12-15T03:55:31;44.58;;;22.42;;
65759;SDS011;52496;51.082;5.066;2022-12-15T03:58:02;43.80;;;22.30;;
65759;SDS011;52496;51.082;5.066;2022-12-15T04:00:33;49.65;;;23.42;;
65759;SDS011;52496;51.082;5.066;2022-12-15T04:03:03;39.10;;;21.65;;
65759;SDS011;52496;51.082;5.066;2022-12-15T04:05:34;43.95;;;22.05;;
65759;SDS011;52496;51.082;5.066;2022-12-15T04:08:05;45.85;;;23.42;;
65759;SDS011;52496;51.082;5.066;2022-12-15T04:10:35;43.17;;;22.27;;
65759;SDS011;52496;51.082;5.066;2022-12-15T04:13:07;53.85;;;21.67;;
65759;SDS011;52496;51.082;5.066;2022-12-15T04:15:39;42.80;;;21.80;;
65759;SDS011;52496;51.082;5.066;2022-12-15T04:18:10;48.17;;;23.25;;
65759;SDS011;52496;51.082;5.066;2022-12-15T04:20:40;42.00;;;22.35;;
65759;SDS011;52496;51.082;5.066;2022-12-15T04:23:11;45.28;;;21.33;;
65759;SDS011;52496;51.082;5.066;2022-12-15T04:25:42;41.50;;;21.00;;
65759;SDS011;52496;51.082;5.066;2022-12-15T04:28:31;35.53;;;21.20;;
65759;SDS011;52496;51.082;5.066;2022-12-15T04:31:22;47.03;;;22.63;;
65759;SDS011;52496;51.082;5.066;2022-12-15T04:34:15;42.10;;;20.45;;
65759;SDS011;52496;51.082;5.066;2022-12-15T04:37:10;39.92;;;20.25;;
65759;SDS011;52496;51.082;5.066;2022-12-15T04:40:01;42.80;;;21.27;;
65759;SDS011;52496;51.082;5.066;2022-12-15T04:42:50;36.00;;;20.23;;
65759;SDS011;52496;51.082;5.066;2022-12-15T04:45:39;42.42;;;21.35;;
65759;SDS011;52496;51.082;5.066;2022-12-15T04:48:28;36.35;;;21.88;;
65759;SDS011;52496;51.082;5.066;2022-12-15T04:51:17;37.88;;;21.75;;
65759;SDS011;52496;51.082;5.066;2022-12-15T04:54:06;44.33;;;21.02;;
65759;SDS011;52496;51.082;5.066;2022-12-15T04:56:55;39.60;;;20.80;;
65759;SDS011;52496;51.082;5.066;2022-12-15T04:59:44;44.78;;;21.15;;
65759;SDS011;52496;51.082;5.066;2022-12-15T05:02:33;38.90;;;21.00;;
65759;SDS011;52496;51.082;5.066;2022-12-15T05:05:22;38.53;;;21.37;;
65759;SDS011;52496;51.082;5.066;2022-12-15T05:08:11;36.03;;;21.30;;
65759;SDS011;52496;51.082;5.066;2022-12-15T05:11:01;37.17;;;21.65;;
65759;SDS011;52496;51.082;5.066;2022-12-15T05:13:49;41.47;;;21.27;;
65759;SDS011;52496;51.082;5.066;2022-12-15T05:16:39;51.60;;;21.25;;
65759;SDS011;52496;51.082;5.066;2022-12-15T05:19:27;35.63;;;20.38;;
65759;SDS011;52496;51.082;5.066;2022-12-15T05:22:16;42.55;;;19.85;;
65759;SDS011;52496;51.082;5.066;2022-12-15T05:25:06;36.53;;;22.00;;
65759;SDS011;52496;51.082;5.066;2022-12-15T05:27:55;38.40;;;20.77;;
65759;SDS011;52496;51.082;5.066;2022-12-15T05:30:44;33.28;;;18.77;;
65759;SDS011;52496;51.082;5.066;2022-12-15T05:33:33;37.85;;;19.73;;
65759;SDS011;52496;51.082;5.066;2022-12-15T05:36:04;35.58;;;19.77;;
65759;SDS011;52496;51.082;5.066;2022-12-15T05:38:35;40.05;;;19.88;;
65759;SDS011;52496;51.082;5.066;2022-12-15T05:41:05;35.10;;;19.50;;
65759;SDS011;52496;51.082;5.066;2022-12-15T05:43:36;40.70;;;20.65;;
65759;SDS011;52496;51.082;5.066;2022-12-15T05:46:07;36.60;;;20.55;;
65759;SDS011;52496;51.082;5.066;2022-12-15T05:48:37;36.33;;;19.10;;
65759;SDS011;52496;51.082;5.066;2022-12-15T05:51:08;34.22;;;19.55;;
65759;SDS011;52496;51.082;5.066;2022-12-15T05:53:40;34.92;;;21.33;;
65759;SDS011;52496;51.082;5.066;2022-12-15T05:56:11;44.13;;;21.45;;
65759;SDS011;52496;51.082;5.066;2022-12-15T05:58:43;34.17;;;18.88;;
65759;SDS011;52496;51.082;5.066;2022-12-15T06:01:14;45.75;;;21.20;;
65759;SDS011;52496;51.082;5.066;2022-12-15T06:03:46;39.42;;;21.55;;
65759;SDS011;52496;51.082;5.066;2022-12-15T06:06:17;40.80;;;21.33;;
65759;SDS011;52496;51.082;5.066;2022-12-15T06:08:48;40.83;;;21.88;;
65759;SDS011;52496;51.082;5.066;2022-12-15T06:11:19;37.25;;;21.00;;
65759;SDS011;52496;51.082;5.066;2022-12-15T06:13:49;42.55;;;22.90;;
65759;SDS011;52496;51.082;5.066;2022-12-15T06:16:21;33.35;;;20.00;;
65759;SDS011;52496;51.082;5.066;2022-12-15T06:18:55;38.50;;;20.25;;
65759;SDS011;52496;51.082;5.066;2022-12-15T06:21:32;43.95;;;21.10;;
65759;SDS011;52496;51.082;5.066;2022-12-15T06:24:04;39.45;;;20.55;;
65759;SDS011;52496;51.082;5.066;2022-12-15T06:26:36;49.88;;;21.80;;
65759;SDS011;52496;51.082;5.066;2022-12-15T06:29:09;46.50;;;20.77;;
65759;SDS011;52496;51.082;5.066;2022-12-15T06:31:42;38.22;;;21.25;;
65759;SDS011;52496;51.082;5.066;2022-12-15T06:34:13;37.78;;;20.02;;
65759;SDS011;52496;51.082;5.066;2022-12-15T06:36:46;40.90;;;22.55;;
65759;SDS011;52496;51.082;5.066;2022-12-15T06:39:16;40.08;;;20.20;;
65759;SDS011;52496;51.082;5.066;2022-12-15T06:41:47;48.25;;;21.95;;
65759;SDS011;52496;51.082;5.066;2022-12-15T06:44:17;35.70;;;19.27;;
65759;SDS011;52496;51.082;5.066;2022-12-15T06:46:48;38.42;;;20.02;;
65759;SDS011;52496;51.082;5.066;2022-12-15T06:49:18;36.38;;;21.23;;
65759;SDS011;52496;51.082;5.066;2022-12-15T06:51:49;37.63;;;19.35;;
65759;SDS011;52496;51.082;5.066;2022-12-15T06:54:19;44.10;;;22.60;;
65759;SDS011;52496;51.082;5.066;2022-12-15T06:56:50;40.83;;;22.45;;
65759;SDS011;52496;51.082;5.066;2022-12-15T06:59:20;39.70;;;20.95;;
65759;SDS011;52496;51.082;5.066;2022-12-15T07:01:51;44.85;;;23.58;;
65759;SDS011;52496;51.082;5.066;2022-12-15T07:04:21;43.05;;;20.38;;
65759;SDS011;52496;51.082;5.066;2022-12-15T07:06:52;37.83;;;21.80;;
65759;SDS011;52496;51.082;5.066;2022-12-15T07:09:22;34.50;;;20.73;;
65759;SDS011;52496;51.082;5.066;2022-12-15T07:11:55;38.50;;;21.95;;
65759;SDS011;52496;51.082;5.066;2022-12-15T07:14:25;49.67;;;24.55;;
65759;SDS011;52496;51.082;5.066;2022-12-15T07:16:56;42.78;;;22.05;;
65759;SDS011;52496;51.082;5.066;2022-12-15T07:19:26;47.08;;;22.80;;
65759;SDS011;52496;51.082;5.066;2022-12-15T07:21:57;51.05;;;22.23;;
65759;SDS011;52496;51.082;5.066;2022-12-15T07:24:28;48.45;;;25.77;;
65759;SDS011;52496;51.082;5.066;2022-12-15T07:26:59;53.90;;;23.58;;
65759;SDS011;52496;51.082;5.066;2022-12-15T07:29:29;58.15;;;27.05;;
65759;SDS011;52496;51.082;5.066;2022-12-15T07:32:00;52.67;;;25.02;;
65759;SDS011;52496;51.082;5.066;2022-12-15T07:34:30;55.60;;;27.13;;
65759;SDS011;52496;51.082;5.066;2022-12-15T07:37:01;59.35;;;27.83;;
65759;SDS011;52496;51.082;5.066;2022-12-15T07:39:32;55.40;;;25.65;;
65759;SDS011;52496;51.082;5.066;2022-12-15T07:42:03;57.10;;;25.95;;
65759;SDS011;52496;51.082;5.066;2022-12-15T07:44:33;56.45;;;26.73;;
65759;SDS011;52496;51.082;5.066;2022-12-15T07:47:04;50.78;;;27.00;;
65759;SDS011;52496;51.082;5.066;2022-12-15T07:49:34;55.33;;;27.50;;
65759;SDS011;52496;51.082;5.066;2022-12-15T07:52:05;57.88;;;28.55;;
65759;SDS011;52496;51.082;5.066;2022-12-15T07:54:35;54.47;;;26.67;;
65759;SDS011;52496;51.082;5.066;2022-12-15T07:57:06;51.00;;;26.35;;
65759;SDS011;52496;51.082;5.066;2022-12-15T07:59:37;50.08;;;25.88;;
65759;SDS011;52496;51.082;5.066;2022-12-15T08:02:11;46.03;;;25.48;;
65759;SDS011;52496;51.082;5.066;2022-12-15T08:04:42;46.13;;;24.20;;
65759;SDS011;52496;51.082;5.066;2022-12-15T08:07:13;47.45;;;24.23;;
65759;SDS011;52496;51.082;5.066;2022-12-15T08:09:43;50.47;;;23.92;;
65759;SDS011;52496;51.082;5.066;2022-12-15T08:12:16;52.28;;;27.13;;
65759;SDS011;52496;51.082;5.066;2022-12-15T08:14:47;58.08;;;27.40;;
65759;SDS011;52496;51.082;5.066;2022-12-15T08:17:17;50.60;;;28.23;;
65759;SDS011;52496;51.082;5.066;2022-12-15T08:19:47;52.30;;;27.58;;
65759;SDS011;52496;51.082;5.066;2022-12-15T08:22:18;49.55;;;25.38;;
65759;SDS011;52496;51.082;5.066;2022-12-15T08:24:48;54.13;;;26.90;;
65759;SDS011;52496;51.082;5.066;2022-12-15T08:27:19;62.78;;;28.90;;
65759;SDS011;52496;51.082;5.066;2022-12-15T08:29:50;48.90;;;27.48;;
65759;SDS011;52496;51.082;5.066;2022-12-15T08:32:21;63.80;;;28.45;;
65759;SDS011;52496;51.082;5.066;2022-12-15T08:34:51;39.45;;;22.85;;
65759;SDS011;52496;51.082;5.066;2022-12-15T08:37:22;60.55;;;29.35;;
65759;SDS011;52496;51.082;5.066;2022-12-15T08:39:52;54.30;;;27.13;;
65759;SDS011;52496;51.082;5.066;2022-12-15T08:42:23;51.65;;;28.73;;
65759;SDS011;52496;51.082;5.066;2022-12-15T08:44:53;65.55;;;31.48;;
65759;SDS011;52496;51.082;5.066;2022-12-15T08:47:24;54.15;;;27.67;;
65759;SDS011;52496;51.082;5.066;2022-12-15T08:49:54;55.67;;;27.38;;
65759;SDS011;52496;51.082;5.066;2022-12-15T08:52:24;65.05;;;30.00;;
65759;SDS011;52496;51.082;5.066;2022-12-15T08:54:55;53.90;;;27.38;;
65759;SDS011;52496;51.082;5.066;2022-12-15T08:57:25;64.15;;;27.00;;
65759;SDS011;52496;51.082;5.066;2022-12-15T08:59:56;52.30;;;25.30;;
65759;SDS011;52496;51.082;5.066;2022-12-15T09:02:26;51.45;;;27.45;;
65759;SDS011;52496;51.082;5.066;2022-12-15T09:04:57;53.97;;;27.95;;
65759;SDS011;52496;51.082;5.066;2022-12-15T09:07:27;54.65;;;29.92;;
65759;SDS011;52496;51.082;5.066;2022-12-15T09:09:58;50.65;;;27.88;;
65759;SDS011;52496;51.082;5.066;2022-12-15T09:12:28;51.72;;;24.15;;
65759;SDS011;52496;51.082;5.066;2022-12-15T09:14:58;45.13;;;25.08;;
65759;SDS011;52496;51.082;5.066;2022-12-15T09:17:29;53.75;;;24.90;;
65759;SDS011;52496;51.082;5.066;2022-12-15T09:20:00;52.30;;;25.80;;
65759;SDS011;52496;51.082;5.066;2022-12-15T09:22:30;54.10;;;27.80;;
65759;SDS011;52496;51.082;5.066;2022-12-15T09:25:02;46.42;;;24.58;;
65759;SDS011;52496;51.082;5.066;2022-12-15T09:27:33;53.67;;;26.15;;
65759;SDS011;52496;51.082;5.066;2022-12-15T09:30:04;53.13;;;23.48;;
65759;SDS011;52496;51.082;5.066;2022-12-15T09:32:36;57.40;;;28.42;;
65759;SDS011;52496;51.082;5.066;2022-12-15T09:35:06;46.60;;;24.75;;
65759;SDS011;52496;51.082;5.066;2022-12-15T09:37:37;47.33;;;22.52;;
65759;SDS011;52496;51.082;5.066;2022-12-15T09:40:08;53.13;;;27.45;;
65759;SDS011;52496;51.082;5.066;2022-12-15T09:42:41;52.40;;;25.15;;
65759;SDS011;52496;51.082;5.066;2022-12-15T09:45:19;52.60;;;26.52;;
65759;SDS011;52496;51.082;5.066;2022-12-15T09:48:00;53.50;;;26.48;;
65759;SDS011;52496;51.082;5.066;2022-12-15T09:50:34;56.10;;;26.63;;
65759;SDS011;52496;51.082;5.066;2022-12-15T09:53:11;52.08;;;25.20;;
65759;SDS011;52496;51.082;5.066;2022-12-15T09:55:46;51.03;;;24.38;;
65759;SDS011;52496;51.082;5.066;2022-12-15T10:01:31;46.22;;;26.17;;
65759;SDS011;52496;51.082;5.066;2022-12-15T10:04:11;55.50;;;25.50;;
65759;SDS011;52496;51.082;5.066;2022-12-15T10:06:48;48.78;;;25.27;;
65759;SDS011;52496;51.082;5.066;2022-12-15T10:09:26;43.72;;;25.17;;
65759;SDS011;52496;51.082;5.066;2022-12-15T10:12:01;45.42;;;23.92;;
65759;SDS011;52496;51.082;5.066;2022-12-15T10:17:26;48.25;;;26.58;;
65759;SDS011;52496;51.082;5.066;2022-12-15T10:20:16;49.65;;;26.00;;
65759;SDS011;52496;51.082;5.066;2022-12-15T10:22:49;58.22;;;27.55;;
65759;SDS011;52496;51.082;5.066;2022-12-15T10:30:57;45.03;;;25.90;;
65759;SDS011;52496;51.082;5.066;2022-12-15T10:33:41;48.30;;;24.67;;
65759;SDS011;52496;51.082;5.066;2022-12-15T10:36:14;46.38;;;24.92;;
65759;SDS011;52496;51.082;5.066;2022-12-15T10:38:45;44.30;;;25.65;;
65759;SDS011;52496;51.082;5.066;2022-12-15T10:41:20;49.50;;;26.38;;
65759;SDS011;52496;51.082;5.066;2022-12-15T10:43:53;53.67;;;27.27;;
65759;SDS011;52496;51.082;5.066;2022-12-15T10:46:25;47.00;;;26.52;;
65759;SDS011;52496;51.082;5.066;2022-12-15T10:48:58;50.17;;;27.15;;
65759;SDS011;52496;51.082;5.066;2022-12-15T10:51:54;46.38;;;26.98;;
65759;SDS011;52496;51.082;5.066;2022-12-15T10:54:29;47.25;;;26.20;;
65759;SDS011;52496;51.082;5.066;2022-12-15T10:57:24;47.08;;;25.63;;
65759;SDS011;52496;51.082;5.066;2022-12-15T11:00:23;46.35;;;25.67;;
65759;SDS011;52496;51.082;5.066;2022-12-15T11:02:54;46.10;;;25.67;;
65759;SDS011;52496;51.082;5.066;2022-12-15T11:05:24;47.03;;;27.55;;
65759;SDS011;52496;51.082;5.066;2022-12-15T11:08:17;56.88;;;27.30;;
65759;SDS011;52496;51.082;5.066;2022-12-15T11:10:48;45.42;;;25.85;;
65759;SDS011;52496;51.082;5.066;2022-12-15T11:14:02;52.28;;;27.20;;
65759;SDS011;52496;51.082;5.066;2022-12-15T11:16:41;46.97;;;26.33;;
65759;SDS011;52496;51.082;5.066;2022-12-15T11:19:19;49.60;;;25.58;;
65759;SDS011;52496;51.082;5.066;2022-12-15T11:21:58;49.50;;;26.77;;
65759;SDS011;52496;51.082;5.066;2022-12-15T11:27:36;40.08;;;23.77;;
65759;SDS011;52496;51.082;5.066;2022-12-15T11:32:45;40.67;;;24.80;;
65759;SDS011;52496;51.082;5.066;2022-12-15T11:35:21;46.63;;;26.67;;
65759;SDS011;52496;51.082;5.066;2022-12-15T11:40:53;43.75;;;25.17;;
65759;SDS011;52496;51.082;5.066;2022-12-15T11:43:36;40.40;;;24.42;;
65759;SDS011;52496;51.082;5.066;2022-12-15T11:46:26;46.67;;;25.13;;
65759;SDS011;52496;51.082;5.066;2022-12-15T11:49:26;46.65;;;25.05;;
65759;SDS011;52496;51.082;5.066;2022-12-15T11:55:17;43.78;;;23.70;;
65759;SDS011;52496;51.082;5.066;2022-12-15T11:58:09;40.47;;;23.97;;
65759;SDS011;52496;51.082;5.066;2022-12-15T12:00:49;47.50;;;24.85;;
65759;SDS011;52496;51.082;5.066;2022-12-15T12:03:43;44.28;;;22.00;;
65759;SDS011;52496;51.082;5.066;2022-12-15T12:06:25;47.55;;;24.08;;
65759;SDS011;52496;51.082;5.066;2022-12-15T12:09:10;42.38;;;24.20;;
65759;SDS011;52496;51.082;5.066;2022-12-15T12:15:13;43.95;;;24.13;;
65759;SDS011;52496;51.082;5.066;2022-12-15T12:18:18;45.20;;;23.83;;
65759;SDS011;52496;51.082;5.066;2022-12-15T12:21:01;43.25;;;23.88;;
65759;SDS011;52496;51.082;5.066;2022-12-15T12:23:38;43.85;;;24.90;;
65759;SDS011;52496;51.082;5.066;2022-12-15T12:26:54;43.05;;;23.25;;
65759;SDS011;52496;51.082;5.066;2022-12-15T12:37:40;39.80;;;22.92;;
65759;SDS011;52496;51.082;5.066;2022-12-15T12:40:21;36.85;;;22.42;;
65759;SDS011;52496;51.082;5.066;2022-12-15T12:43:00;36.83;;;20.58;;
65759;SDS011;52496;51.082;5.066;2022-12-15T12:48:23;43.88;;;23.88;;
65759;SDS011;52496;51.082;5.066;2022-12-15T12:51:15;37.47;;;22.20;;
65759;SDS011;52496;51.082;5.066;2022-12-15T12:53:48;39.30;;;23.73;;
65759;SDS011;52496;51.082;5.066;2022-12-15T13:18:18;43.40;;;21.30;;
65759;SDS011;52496;51.082;5.066;2022-12-15T13:20:52;35.90;;;21.10;;
65759;SDS011;52496;51.082;5.066;2022-12-15T13:31:13;34.13;;;21.23;;
65759;SDS011;52496;51.082;5.066;2022-12-15T13:47:11;36.70;;;20.88;;
65759;SDS011;52496;51.082;5.066;2022-12-15T13:52:44;33.95;;;19.85;;
65759;SDS011;52496;51.082;5.066;2022-12-15T13:55:20;37.60;;;20.63;;
65759;SDS011;52496;51.082;5.066;2022-12-15T13:57:56;32.20;;;19.50;;
65759;SDS011;52496;51.082;5.066;2022-12-15T14:00:31;37.05;;;19.55;;
65759;SDS011;52496;51.082;5.066;2022-12-15T14:03:03;32.97;;;19.60;;
65759;SDS011;52496;51.082;5.066;2022-12-15T14:05:36;33.42;;;19.27;;
65759;SDS011;52496;51.082;5.066;2022-12-15T14:08:09;35.92;;;20.33;;
65759;SDS011;52496;51.082;5.066;2022-12-15T14:10:47;32.17;;;18.83;;
65759;SDS011;52496;51.082;5.066;2022-12-15T14:13:33;35.60;;;20.42;;
65759;SDS011;52496;51.082;5.066;2022-12-15T14:16:18;33.92;;;19.58;;
65759;SDS011;52496;51.082;5.066;2022-12-15T14:21:50;38.40;;;19.98;;
65759;SDS011;52496;51.082;5.066;2022-12-15T14:26:59;32.83;;;19.80;;
65759;SDS011;52496;51.082;5.066;2022-12-15T14:29:30;39.28;;;21.00;;
65759;SDS011;52496;51.082;5.066;2022-12-15T14:32:00;35.22;;;20.52;;
65759;SDS011;52496;51.082;5.066;2022-12-15T14:34:35;34.60;;;20.45;;
65759;SDS011;52496;51.082;5.066;2022-12-15T14:37:14;40.40;;;21.85;;
65759;SDS011;52496;51.082;5.066;2022-12-15T14:39:48;39.60;;;22.65;;
65759;SDS011;52496;51.082;5.066;2022-12-15T14:42:22;34.20;;;21.13;;
65759;SDS011;52496;51.082;5.066;2022-12-15T14:44:56;37.38;;;22.75;;
65759;SDS011;52496;51.082;5.066;2022-12-15T14:47:27;35.97;;;21.45;;
65759;SDS011;52496;51.082;5.066;2022-12-15T14:50:02;40.85;;;22.63;;
65759;SDS011;52496;51.082;5.066;2022-12-15T14:52:37;38.22;;;21.73;;
65759;SDS011;52496;51.082;5.066;2022-12-15T14:57:59;39.97;;;23.38;;
65759;SDS011;52496;51.082;5.066;2022-12-15T15:08:33;36.42;;;21.85;;
65759;SDS011;52496;51.082;5.066;2022-12-15T15:13:47;38.55;;;21.08;;
65759;SDS011;52496;51.082;5.066;2022-12-15T15:16:18;33.40;;;21.48;;
65759;SDS011;52496;51.082;5.066;2022-12-15T15:18:49;39.70;;;22.48;;
65759;SDS011;52496;51.082;5.066;2022-12-15T15:21:23;36.35;;;21.77;;
65759;SDS011;52496;51.082;5.066;2022-12-15T15:23:56;37.13;;;21.05;;
65759;SDS011;52496;51.082;5.066;2022-12-15T15:26:30;40.67;;;22.67;;
65759;SDS011;52496;51.082;5.066;2022-12-15T15:29:01;40.28;;;22.60;;
65759;SDS011;52496;51.082;5.066;2022-12-15T15:31:35;44.83;;;23.20;;
65759;SDS011;52496;51.082;5.066;2022-12-15T15:34:07;48.08;;;23.63;;
65759;SDS011;52496;51.082;5.066;2022-12-15T15:36:41;37.53;;;21.90;;
65759;SDS011;52496;51.082;5.066;2022-12-15T15:39:12;38.80;;;23.05;;
65759;SDS011;52496;51.082;5.066;2022-12-15T15:41:44;37.33;;;22.75;;
65759;SDS011;52496;51.082;5.066;2022-12-15T15:44:15;40.67;;;22.52;;
65759;SDS011;52496;51.082;5.066;2022-12-15T15:46:46;38.53;;;20.58;;
65759;SDS011;52496;51.082;5.066;2022-12-15T15:49:19;37.20;;;22.83;;
65759;SDS011;52496;51.082;5.066;2022-12-15T15:51:53;40.50;;;22.98;;
65759;SDS011;52496;51.082;5.066;2022-12-15T15:54:26;39.60;;;22.23;;
65759;SDS011;52496;51.082;5.066;2022-12-15T15:57:03;41.78;;;23.48;;
65759;SDS011;52496;51.082;5.066;2022-12-15T15:59:33;44.55;;;23.52;;
65759;SDS011;52496;51.082;5.066;2022-12-15T16:02:07;38.42;;;23.08;;
65759;SDS011;52496;51.082;5.066;2022-12-15T16:04:39;41.05;;;23.30;;
65759;SDS011;52496;51.082;5.066;2022-12-15T16:07:18;40.58;;;22.95;;
65759;SDS011;52496;51.082;5.066;2022-12-15T16:09:53;39.65;;;23.08;;
65759;SDS011;52496;51.082;5.066;2022-12-15T16:12:58;40.45;;;23.55;;
65759;SDS011;52496;51.082;5.066;2022-12-15T16:15:25;40.20;;;23.13;;
65759;SDS011;52496;51.082;5.066;2022-12-15T16:17:57;39.95;;;24.10;;
65759;SDS011;52496;51.082;5.066;2022-12-15T16:20:29;43.15;;;24.70;;
65759;SDS011;52496;51.082;5.066;2022-12-15T16:23:01;50.33;;;26.48;;
65759;SDS011;52496;51.082;5.066;2022-12-15T16:25:38;42.20;;;24.27;;
65759;SDS011;52496;51.082;5.066;2022-12-15T16:30:46;44.58;;;24.25;;
65759;SDS011;52496;51.082;5.066;2022-12-15T16:33:17;44.90;;;24.02;;
65759;SDS011;52496;51.082;5.066;2022-12-15T16:35:48;51.63;;;24.73;;
65759;SDS011;52496;51.082;5.066;2022-12-15T16:38:23;42.63;;;24.58;;
65759;SDS011;52496;51.082;5.066;2022-12-15T16:40:57;41.80;;;24.25;;
65759;SDS011;52496;51.082;5.066;2022-12-15T16:43:33;44.88;;;26.75;;
65759;SDS011;52496;51.082;5.066;2022-12-15T16:46:04;52.40;;;27.67;;
65759;SDS011;52496;51.082;5.066;2022-12-15T16:48:35;41.97;;;25.10;;
65759;SDS011;52496;51.082;5.066;2022-12-15T16:51:11;41.78;;;24.33;;
65759;SDS011;52496;51.082;5.066;2022-12-15T16:53:55;43.33;;;23.85;;
65759;SDS011;52496;51.082;5.066;2022-12-15T16:56:32;42.45;;;23.52;;
65759;SDS011;52496;51.082;5.066;2022-12-15T16:59:07;46.58;;;22.52;;
65759;SDS011;52496;51.082;5.066;2022-12-15T17:01:44;46.92;;;24.77;;
65759;SDS011;52496;51.082;5.066;2022-12-15T17:04:14;43.40;;;24.70;;
65759;SDS011;52496;51.082;5.066;2022-12-15T17:06:45;47.13;;;24.58;;
65759;SDS011;52496;51.082;5.066;2022-12-15T17:09:17;46.42;;;24.30;;
65759;SDS011;52496;51.082;5.066;2022-12-15T17:11:52;44.05;;;24.48;;
65759;SDS011;52496;51.082;5.066;2022-12-15T17:14:25;44.22;;;24.00;;